Time,TemperatureF,DewpointF,PressureIn,WindDirection,WindDirectionDegrees,WindSpeedMPH,WindSpeedGustMPH,Humidity,HourlyPrecipIn,Conditions,Clouds,dailyrainin,SoftwareType,DateUTC
2013-02-18 00:12:00,20.4,14.0,30.32,ESE,105,0.0,0.0,76,0.00,,,0.00,weatherlink.com 1.10,2013-02-18 05:12:00,
2013-02-18 00:27:00,19.8,13.0,30.32,ESE,105,0.0,0.0,76,0.00,,,0.00,weatherlink.com 1.10,2013-02-18 05:27:00,
2013-02-18 00:42:00,19.3,14.0,30.32,ESE,106,0.0,0.0,81,0.00,,,0.00,weatherlink.com 1.10,2013-02-18 05:42:00,
2013-02-18 00:57:00,19.2,15.0,30.33,ESE,106,0.0,0.0,82,0.00,,,0.00,weatherlink.com 1.10,2013-02-18 05:57:00,
2013-02-18 01:12:00,18.6,14.0,30.34,ESE,106,0.0,0.0,83,0.00,,,0.00,weatherlink.com 1.10,2013-02-18 06:12:00,
2013-02-18 01:27:00,18.1,14.0,30.34,ESE,106,0.0,0.0,83,0.00,,,0.00,weatherlink.com 1.10,2013-02-18 06:27:00,
2013-02-18 01:42:00,17.8,13.0,30.34,ESE,106,0.0,0.0,81,0.00,,,0.00,weatherlink.com 1.10,2013-02-18 06:42:00,
2013-02-18 01:57:00,17.7,13.0,30.34,ESE,105,0.0,0.0,81,0.00,,,0.00,weatherlink.com 1.10,2013-02-18 06:57:00,
2013-02-18 02:12:00,17.7,14.0,30.34,ESE,106,0.0,0.0,84,0.00,,,0.00,weatherlink.com 1.10,2013-02-18 07:12:00,
2013-02-18 02:28:00,17.1,13.0,30.35,ESE,106,0.0,0.0,84,0.00,,,0.00,weatherlink.com 1.10,2013-02-18 07:28:00,
2013-02-18 02:42:00,16.7,13.0,30.35,ESE,105,0.0,0.0,85,0.00,,,0.00,weatherlink.com 1.10,2013-02-18 07:42:00,
2013-02-18 02:57:00,16.2,13.0,30.36,ESE,105,0.0,0.0,87,0.00,,,0.00,weatherlink.com 1.10,2013-02-18 07:57:00,
2013-02-18 03:12:00,16.5,13.0,30.36,ESE,105,0.0,0.0,86,0.00,,,0.00,weatherlink.com 1.10,2013-02-18 08:12:00,
2013-02-18 03:27:00,16.6,13.0,30.36,ESE,105,0.0,0.0,87,0.00,,,0.00,weatherlink.com 1.10,2013-02-18 08:27:00,
2013-02-18 03:42:00,16.2,13.0,30.36,ESE,105,0.0,0.0,86,0.00,,,0.00,weatherlink.com 1.10,2013-02-18 08:42:00,
2013-02-18 03:58:00,16.2,13.0,30.36,ESE,106,0.0,0.0,85,0.00,,,0.00,weatherlink.com 1.10,2013-02-18 08:58:00,
2013-02-18 04:12:00,16.1,13.0,30.37,ESE,106,0.0,0.0,86,0.00,,,0.00,weatherlink.com 1.10,2013-02-18 09:12:00,
2013-02-18 04:28:00,16.3,12.0,30.37,ESE,106,0.0,0.0,84,0.00,,,0.00,weatherlink.com 1.10,2013-02-18 09:28:00,
2013-02-18 04:43:00,16.4,13.0,30.37,ESE,105,0.0,0.0,87,0.00,,,0.00,weatherlink.com 1.10,2013-02-18 09:43:00,
2013-02-18 04:58:00,16.1,13.0,30.38,ESE,106,0.0,0.0,87,0.00,,,0.00,weatherlink.com 1.10,2013-02-18 09:58:00,
2013-02-18 05:13:00,15.2,12.0,30.38,ESE,106,0.0,0.0,88,0.00,,,0.00,weatherlink.com 1.10,2013-02-18 10:13:00,
2013-02-18 05:28:00,15.3,13.0,30.39,ESE,106,0.0,0.0,89,0.00,,,0.00,weatherlink.com 1.10,2013-02-18 10:28:00,
2013-02-18 05:43:00,15.4,13.0,30.40,WSW,238,0.0,0.0,89,0.00,,,0.00,weatherlink.com 1.10,2013-02-18 10:43:00,
2013-02-18 05:58:00,14.8,12.0,30.41,WSW,238,0.0,0.0,89,0.00,,,0.00,weatherlink.com 1.10,2013-02-18 10:58:00,
2013-02-18 06:13:00,14.7,12.0,30.41,WSW,238,0.0,0.0,90,0.00,,,0.00,weatherlink.com 1.10,2013-02-18 11:13:00,
2013-02-18 06:43:00,15.9,13.0,30.42,WSW,238,0.0,0.0,86,0.00,,,0.00,weatherlink.com 1.10,2013-02-18 11:43:00,
2013-02-18 06:58:00,16.0,13.0,30.42,WSW,238,0.0,0.0,86,0.00,,,0.00,weatherlink.com 1.10,2013-02-18 11:58:00,
2013-02-18 07:28:00,15.5,13.0,30.43,WSW,238,0.0,0.0,89,0.00,,,0.00,weatherlink.com 1.10,2013-02-18 12:28:00,
2013-02-18 07:43:00,15.6,13.0,30.43,WSW,237,0.0,0.0,89,0.00,,,0.00,weatherlink.com 1.10,2013-02-18 12:43:00,
2013-02-18 07:58:00,16.8,14.0,30.44,WSW,238,0.0,0.0,90,0.00,,,0.00,weatherlink.com 1.10,2013-02-18 12:58:00,
2013-02-18 08:13:00,19.1,16.0,30.44,WSW,238,0.0,0.0,88,0.00,,,0.00,weatherlink.com 1.10,2013-02-18 13:13:00,
2013-02-18 08:28:00,22.5,19.0,30.45,WSW,238,0.0,0.0,87,0.00,,,0.00,weatherlink.com 1.10,2013-02-18 13:28:00,
2013-02-18 08:43:00,25.6,21.0,30.45,WSW,238,0.0,0.0,82,0.00,,,0.00,weatherlink.com 1.10,2013-02-18 13:43:00,
2013-02-18 08:58:00,30.1,18.0,30.45,ESE,103,0.0,0.0,60,0.00,,,0.00,weatherlink.com 1.10,2013-02-18 13:58:00,
2013-02-18 09:13:00,31.7,17.0,30.45,SSW,210,0.0,2.0,56,0.00,,,0.00,weatherlink.com 1.10,2013-02-18 14:13:00,
2013-02-18 09:28:00,32.8,16.0,30.45,SE,137,1.0,2.0,51,0.00,,,0.00,weatherlink.com 1.10,2013-02-18 14:28:00,
2013-02-18 09:43:00,34.9,15.0,30.45,East,96,1.0,2.0,44,0.00,,,0.00,weatherlink.com 1.10,2013-02-18 14:43:00,
2013-02-18 09:58:00,36.1,12.0,30.45,WNW,295,1.0,3.0,37,0.00,,,0.00,weatherlink.com 1.10,2013-02-18 14:58:00,
2013-02-18 10:14:00,37.0,15.0,30.45,ESE,112,3.0,3.0,40,0.00,,,0.00,weatherlink.com 1.10,2013-02-18 15:14:00,
2013-02-18 10:29:00,38.0,16.0,30.45,ESE,110,1.0,3.0,40,0.00,,,0.00,weatherlink.com 1.10,2013-02-18 15:29:00,
2013-02-18 10:44:00,39.6,19.0,30.45,WSW,253,2.0,2.0,43,0.00,,,0.00,weatherlink.com 1.10,2013-02-18 15:44:00,
2013-02-18 10:59:00,40.9,17.0,30.44,ESE,118,1.0,3.0,38,0.00,,,0.00,weatherlink.com 1.10,2013-02-18 15:59:00,
2013-02-18 11:14:00,42.2,16.0,30.44,WNW,288,1.0,3.0,35,0.00,,,0.00,weatherlink.com 1.10,2013-02-18 16:14:00,
2013-02-18 11:29:00,42.9,16.0,30.43,SSW,193,1.0,3.0,34,0.00,,,0.00,weatherlink.com 1.10,2013-02-18 16:29:00,
2013-02-18 11:44:00,44.0,17.0,30.43,SW,218,2.0,3.0,34,0.00,,,0.00,weatherlink.com 1.10,2013-02-18 16:44:00,
2013-02-18 12:00:00,45.3,16.0,30.42,SSW,212,2.0,3.0,31,0.00,,,0.00,weatherlink.com 1.10,2013-02-18 17:00:00,
2013-02-18 12:15:00,46.5,17.0,30.41,ESE,115,1.0,2.0,31,0.00,,,0.00,weatherlink.com 1.10,2013-02-18 17:15:00,
2013-02-18 12:30:00,47.3,16.0,30.41,WSW,251,0.0,3.0,28,0.01,,,0.01,weatherlink.com 1.10,2013-02-18 17:30:00,
2013-02-18 12:45:00,48.3,16.0,30.39,WSW,241,1.0,4.0,27,0.01,,,0.01,weatherlink.com 1.10,2013-02-18 17:45:00,
2013-02-18 13:00:00,48.4,17.0,30.38,SSW,205,0.0,5.0,29,0.01,,,0.01,weatherlink.com 1.10,2013-02-18 18:00:00,
2013-02-18 13:15:00,49.4,17.0,30.37,East,101,0.0,4.0,28,0.01,,,0.01,weatherlink.com 1.10,2013-02-18 18:15:00,
2013-02-18 13:45:00,51.0,17.0,30.35,ESE,114,0.0,3.0,26,0.00,,,0.01,weatherlink.com 1.10,2013-02-18 18:45:00,
2013-02-18 14:00:00,51.9,19.0,30.35,South,174,0.0,2.0,27,0.00,,,0.01,weatherlink.com 1.10,2013-02-18 19:00:00,
2013-02-18 14:17:00,52.5,18.0,30.34,SE,133,0.0,5.0,26,0.00,,,0.01,weatherlink.com 1.10,2013-02-18 19:17:00,
2013-02-18 14:31:00,52.6,18.0,30.34,East,94,0.0,6.0,26,0.00,,,0.01,weatherlink.com 1.10,2013-02-18 19:31:00,
2013-02-18 14:46:00,52.6,19.0,30.34,SSE,160,1.0,3.0,27,0.00,,,0.01,weatherlink.com 1.10,2013-02-18 19:46:00,
2013-02-18 15:01:00,52.2,20.0,30.34,SSE,163,1.0,4.0,28,0.00,,,0.01,weatherlink.com 1.10,2013-02-18 20:01:00,
2013-02-18 15:17:00,52.5,19.0,30.33,SE,132,2.0,4.0,27,0.00,,,0.01,weatherlink.com 1.10,2013-02-18 20:17:00,
2013-02-18 15:31:00,52.4,21.0,30.33,SW,218,1.0,4.0,29,0.00,,,0.01,weatherlink.com 1.10,2013-02-18 20:31:00,
2013-02-18 15:46:00,52.0,22.0,30.33,SSE,150,1.0,4.0,31,0.00,,,0.01,weatherlink.com 1.10,2013-02-18 20:46:00,
2013-02-18 16:17:00,50.9,21.0,30.32,SE,127,1.0,5.0,31,0.00,,,0.01,weatherlink.com 1.10,2013-02-18 21:17:00,
2013-02-18 16:32:00,50.8,21.0,30.32,SSE,159,0.0,3.0,31,0.00,,,0.01,weatherlink.com 1.10,2013-02-18 21:32:00,
2013-02-18 16:46:00,49.8,19.0,30.32,ESE,110,1.0,5.0,30,0.00,,,0.01,weatherlink.com 1.10,2013-02-18 21:46:00,
2013-02-18 17:02:00,49.0,21.0,30.32,SE,125,2.0,2.0,33,0.00,,,0.01,weatherlink.com 1.10,2013-02-18 22:02:00,
2013-02-18 17:17:00,48.4,22.0,30.32,SE,140,0.0,3.0,35,0.00,,,0.01,weatherlink.com 1.10,2013-02-18 22:17:00,
2013-02-18 17:32:00,47.6,22.0,30.31,NW,310,1.0,2.0,36,0.00,,,0.01,weatherlink.com 1.10,2013-02-18 22:32:00,
2013-02-18 17:47:00,46.5,22.0,30.32,SSE,147,1.0,2.0,38,0.00,,,0.01,weatherlink.com 1.10,2013-02-18 22:47:00,
2013-02-18 18:17:00,44.2,21.0,30.33,SE,127,0.0,1.0,40,0.00,,,0.01,weatherlink.com 1.10,2013-02-18 23:17:00,
2013-02-18 18:32:00,43.1,21.0,30.33,SE,127,0.0,1.0,42,0.00,,,0.01,weatherlink.com 1.10,2013-02-18 23:32:00,
2013-02-18 18:47:00,42.5,21.0,30.33,SE,127,0.0,1.0,43,0.00,,,0.01,weatherlink.com 1.10,2013-02-18 23:47:00,
2013-02-18 19:02:00,42.3,21.0,30.33,SE,127,0.0,1.0,43,0.00,,,0.01,weatherlink.com 1.10,2013-02-19 00:02:00,
2013-02-18 19:17:00,41.9,22.0,30.32,SE,128,0.0,1.0,45,0.00,,,0.01,weatherlink.com 1.10,2013-02-19 00:17:00,
2013-02-18 19:32:00,41.6,22.0,30.32,SE,133,0.0,1.0,45,0.00,,,0.01,weatherlink.com 1.10,2013-02-19 00:32:00,
2013-02-18 19:47:00,41.3,21.0,30.32,SE,134,0.0,1.0,45,0.00,,,0.01,weatherlink.com 1.10,2013-02-19 00:47:00,
2013-02-18 20:17:00,40.7,21.0,30.32,SE,129,1.0,1.0,46,0.00,,,0.01,weatherlink.com 1.10,2013-02-19 01:17:00,
2013-02-18 20:33:00,40.0,22.0,30.31,ESE,120,1.0,1.0,48,0.00,,,0.01,weatherlink.com 1.10,2013-02-19 01:33:00,
2013-02-18 20:48:00,39.5,22.0,30.32,SE,141,1.0,1.0,50,0.00,,,0.01,weatherlink.com 1.10,2013-02-19 01:48:00,
2013-02-18 21:03:00,39.4,22.0,30.31,SSE,155,0.0,3.0,50,0.00,,,0.01,weatherlink.com 1.10,2013-02-19 02:03:00,
2013-02-18 21:18:00,38.8,23.0,30.31,SE,138,0.0,1.0,53,0.00,,,0.01,weatherlink.com 1.10,2013-02-19 02:18:00,
2013-02-18 21:33:00,38.7,24.0,30.31,ESE,117,1.0,2.0,55,0.00,,,0.01,weatherlink.com 1.10,2013-02-19 02:33:00,
2013-02-18 21:48:00,38.9,24.0,30.30,SSE,150,1.0,2.0,56,0.00,,,0.01,weatherlink.com 1.10,2013-02-19 02:48:00,
2013-02-18 22:03:00,38.9,24.0,30.30,ESE,113,1.0,3.0,56,0.00,,,0.01,weatherlink.com 1.10,2013-02-19 03:03:00,
2013-02-18 22:18:00,38.7,24.0,30.30,ESE,110,2.0,3.0,57,0.00,,,0.01,weatherlink.com 1.10,2013-02-19 03:18:00,
2013-02-18 22:34:00,38.3,25.0,30.30,ESE,106,0.0,1.0,58,0.00,,,0.01,weatherlink.com 1.10,2013-02-19 03:34:00,
2013-02-18 22:49:00,37.8,25.0,30.30,SE,128,0.0,1.0,61,0.00,,,0.01,weatherlink.com 1.10,2013-02-19 03:49:00,
2013-02-18 23:04:00,37.6,25.0,30.30,SE,136,0.0,2.0,62,0.00,,,0.01,weatherlink.com 1.10,2013-02-19 04:04:00,
2013-02-18 23:20:00,37.0,25.0,30.30,SE,125,0.0,1.0,63,0.00,,,0.01,weatherlink.com 1.10,2013-02-19 04:20:00,
2013-02-18 23:34:00,36.6,26.0,30.30,ESE,121,0.0,1.0,65,0.00,,,0.01,weatherlink.com 1.10,2013-02-19 04:34:00,
2013-02-18 23:49:00,36.4,26.0,30.28,SE,134,0.0,1.0,65,0.00,,,0.01,weatherlink.com 1.10,2013-02-19 04:49:00,